Time;durP1;ratioP1;P1;durP2;ratioP2;P2;SDS_P1;SDS_P2;PMS_P1;PMS_P2;Temp;Humidity;BMP_temperature;BMP_pressure;BME280_temperature;BME280_humidity;BME280_pressure;Samples;Min_cycle;Max_cycle;Signal;HPM_P1;HPM_P2
2022/12/19 00:01:21;;;;;;;39.00;20.53;;;;;;;;;;5009224;28;20207;-67
2022/12/19 00:03:49;;;;;;;41.87;20.80;;;;;;;;;;5018163;28;20181;-67
2022/12/19 00:06:16;;;;;;;43.10;20.67;;;;;;;;;;5013356;28;20353;-68
2022/12/19 00:08:43;;;;;;;43.77;20.43;;;;;;;;;;5012878;28;20193;-68
2022/12/19 00:11:10;;;;;;;46.30;20.90;;;;;;;;;;5023921;28;20213;-67
2022/12/19 00:13:37;;;;;;;44.40;20.23;;;;;;;;;;5013494;28;20210;-67
2022/12/19 00:16:22;;;;;;;44.77;20.87;;;;;;;;;;5031478;28;20670;-68
2022/12/19 00:18:49;;;;;;;38.73;19.30;;;;;;;;;;5025614;28;20657;-67
2022/12/19 00:21:16;;;;;;;44.13;21.40;;;;;;;;;;5017034;28;20240;-67
2022/12/19 00:23:43;;;;;;;38.23;19.87;;;;;;;;;;5016506;28;20189;-68
2022/12/19 00:26:15;;;;;;;42.93;21.17;;;;;;;;;;5029173;28;20177;-68
2022/12/19 00:28:45;;;;;;;43.27;20.17;;;;;;;;;;5020089;28;20179;-68
2022/12/19 00:31:11;;;;;;;41.40;20.43;;;;;;;;;;5017112;28;20294;-68
2022/12/19 00:33:36;;;;;;;42.33;20.20;;;;;;;;;;5027011;28;20210;-69
2022/12/19 00:36:09;;;;;;;43.97;20.87;;;;;;;;;;5030001;28;20197;-68
2022/12/19 00:38:35;;;;;;;36.57;19.20;;;;;;;;;;5024016;28;20229;-68
2022/12/19 00:41:16;;;;;;;42.33;20.43;;;;;;;;;;5023022;28;20612;-68
2022/12/19 00:43:42;;;;;;;42.33;20.93;;;;;;;;;;5022944;28;20171;-68
2022/12/19 00:46:11;;;;;;;43.13;20.77;;;;;;;;;;5029456;28;20646;-68
2022/12/19 00:48:36;;;;;;;43.93;21.33;;;;;;;;;;5030415;28;20649;-68
2022/12/19 00:51:10;;;;;;;44.17;20.57;;;;;;;;;;5018575;28;20191;-68
2022/12/19 00:53:36;;;;;;;42.87;19.90;;;;;;;;;;5026131;28;20222;-68
2022/12/19 00:56:03;;;;;;;38.27;20.13;;;;;;;;;;5029975;28;20186;-68
2022/12/19 00:58:29;;;;;;;44.73;20.03;;;;;;;;;;5026338;28;20187;-68
2022/12/19 01:00:54;;;;;;;42.80;20.87;;;;;;;;;;5022472;28;20205;-69
2022/12/19 01:03:20;;;;;;;39.77;19.53;;;;;;;;;;5020999;28;20679;-68
2022/12/19 01:05:45;;;;;;;38.50;19.57;;;;;;;;;;5026920;28;20175;-68
2022/12/19 01:08:10;;;;;;;40.27;19.43;;;;;;;;;;5028821;28;20182;-69
2022/12/19 01:10:36;;;;;;;43.63;21.23;;;;;;;;;;5025665;28;20190;-69
2022/12/19 01:13:02;;;;;;;44.00;20.40;;;;;;;;;;5018605;28;20206;-69
2022/12/19 01:15:27;;;;;;;39.20;18.60;;;;;;;;;;5021874;28;20593;-69
2022/12/19 01:17:52;;;;;;;44.10;20.30;;;;;;;;;;5029528;28;20212;-68
2022/12/19 01:20:20;;;;;;;40.67;19.57;;;;;;;;;;5026936;28;20194;-68
2022/12/19 01:22:46;;;;;;;40.10;20.07;;;;;;;;;;5030193;28;20225;-69
2022/12/19 01:25:12;;;;;;;39.87;19.77;;;;;;;;;;5015483;28;20206;-69
2022/12/19 01:27:38;;;;;;;43.17;19.63;;;;;;;;;;5009632;28;20301;-69
2022/12/19 01:30:04;;;;;;;36.77;18.93;;;;;;;;;;5023269;28;20209;-69
2022/12/19 01:32:30;;;;;;;42.73;20.27;;;;;;;;;;5021282;28;20210;-69
2022/12/19 01:34:55;;;;;;;43.33;20.47;;;;;;;;;;5011499;28;20193;-69
2022/12/19 01:37:21;;;;;;;42.00;19.57;;;;;;;;;;5025498;28;20264;-69
2022/12/19 01:39:46;;;;;;;42.93;20.60;;;;;;;;;;5018911;28;20182;-69
2022/12/19 01:42:18;;;;;;;40.40;20.27;;;;;;;;;;5010518;28;20621;-70
2022/12/19 01:45:06;;;;;;;39.67;20.17;;;;;;;;;;5010950;28;20182;-70
2022/12/19 01:47:39;;;;;;;40.63;20.13;;;;;;;;;;5010926;28;20182;-69
2022/12/19 01:50:10;;;;;;;40.53;20.30;;;;;;;;;;5018455;28;20569;-70
2022/12/19 01:52:36;;;;;;;42.30;20.53;;;;;;;;;;5022397;28;20277;-71
2022/12/19 01:55:01;;;;;;;44.40;20.77;;;;;;;;;;5018820;28;20296;-71
2022/12/19 01:57:28;;;;;;;46.50;21.33;;;;;;;;;;5024395;28;20261;-71
2022/12/19 01:59:58;;;;;;;44.57;21.20;;;;;;;;;;5010485;28;20266;-71
2022/12/19 02:02:36;;;;;;;45.33;21.53;;;;;;;;;;5017437;28;20182;-71
2022/12/19 02:05:03;;;;;;;43.03;20.10;;;;;;;;;;5025962;28;20182;-72
2022/12/19 02:07:30;;;;;;;43.03;20.50;;;;;;;;;;5025930;28;20188;-71
2022/12/19 02:09:56;;;;;;;40.53;19.63;;;;;;;;;;5023601;28;20183;-71
2022/12/19 02:12:23;;;;;;;39.37;19.90;;;;;;;;;;5027465;28;20305;-71
2022/12/19 02:14:49;;;;;;;40.57;19.60;;;;;;;;;;5019182;28;20293;-71
2022/12/19 02:17:31;;;;;;;43.40;21.43;;;;;;;;;;5026841;28;20277;-72
2022/12/19 02:20:21;;;;;;;43.43;21.20;;;;;;;;;;5025969;28;20177;-72
2022/12/19 02:23:14;;;;;;;41.40;20.83;;;;;;;;;;5021847;28;20278;-72
2022/12/19 02:26:21;;;;;;;45.30;21.80;;;;;;;;;;5025342;28;20264;-72
2022/12/19 02:29:11;;;;;;;45.87;21.83;;;;;;;;;;4999089;28;20201;-72
2022/12/19 02:31:52;;;;;;;52.10;23.47;;;;;;;;;;5021195;28;20240;-72
2022/12/19 02:34:35;;;;;;;48.03;22.63;;;;;;;;;;5023933;28;20186;-73
2022/12/19 02:37:06;;;;;;;47.90;23.50;;;;;;;;;;5025949;28;20578;-73
2022/12/19 02:39:44;;;;;;;51.17;23.30;;;;;;;;;;5022636;28;20201;-73
2022/12/19 02:42:14;;;;;;;49.43;23.03;;;;;;;;;;5026997;28;20691;-72
2022/12/19 02:44:43;;;;;;;48.73;23.43;;;;;;;;;;5026694;28;20185;-72
2022/12/19 02:47:10;;;;;;;53.07;25.00;;;;;;;;;;5023981;28;20188;-72
2022/12/19 02:49:37;;;;;;;51.17;23.23;;;;;;;;;;5024234;28;20266;-72
2022/12/19 02:52:31;;;;;;;50.73;24.07;;;;;;;;;;5026317;28;20708;-72
2022/12/19 02:55:11;;;;;;;52.60;23.40;;;;;;;;;;5013389;28;20186;-72
2022/12/19 02:57:41;;;;;;;47.23;23.43;;;;;;;;;;5028255;28;20229;-72
2022/12/19 03:00:11;;;;;;;55.83;25.20;;;;;;;;;;5027202;28;20202;-72
2022/12/19 03:02:56;;;;;;;55.63;25.27;;;;;;;;;;5015986;28;20186;-72
2022/12/19 03:05:53;;;;;;;53.10;24.80;;;;;;;;;;5021263;28;20186;-72
2022/12/19 03:08:21;;;;;;;58.07;24.80;;;;;;;;;;5028172;28;20202;-72
2022/12/19 03:11:20;;;;;;;51.60;24.57;;;;;;;;;;5013810;28;20269;-72
2022/12/19 03:13:58;;;;;;;57.40;25.17;;;;;;;;;;5005032;28;20201;-72
2022/12/19 03:16:24;;;;;;;50.37;23.60;;;;;;;;;;5018709;28;20617;-72
2022/12/19 03:18:50;;;;;;;53.23;24.27;;;;;;;;;;5024160;28;20221;-72
2022/12/19 03:21:37;;;;;;;54.80;23.93;;;;;;;;;;5030011;28;20189;-72
2022/12/19 03:24:05;;;;;;;59.07;25.67;;;;;;;;;;5029620;28;20189;-72
2022/12/19 03:26:48;;;;;;;49.30;23.40;;;;;;;;;;5028110;28;20302;-71
2022/12/19 03:29:17;;;;;;;47.40;24.00;;;;;;;;;;5031183;28;20182;-70
2022/12/19 03:31:44;;;;;;;52.80;23.30;;;;;;;;;;5023593;28;20198;-71
2022/12/19 03:34:23;;;;;;;57.67;24.73;;;;;;;;;;5028550;28;20654;-72
2022/12/19 03:36:54;;;;;;;53.03;24.60;;;;;;;;;;5029497;28;20572;-71
2022/12/19 03:39:22;;;;;;;53.73;22.80;;;;;;;;;;5027588;28;20174;-72
2022/12/19 03:44:38;;;;;;;50.07;24.57;;;;;;;;;;5017902;28;20243;-72
2022/12/19 03:47:16;;;;;;;54.50;23.97;;;;;;;;;;5023940;28;20713;-72
2022/12/19 03:49:42;;;;;;;52.73;24.33;;;;;;;;;;5030032;28;20178;-72
2022/12/19 03:52:16;;;;;;;58.50;24.07;;;;;;;;;;5030541;28;20199;-72
2022/12/19 03:54:49;;;;;;;58.23;26.33;;;;;;;;;;5024413;28;20211;-71
2022/12/19 03:57:17;;;;;;;48.57;23.50;;;;;;;;;;5025772;28;20629;-71
2022/12/19 03:59:48;;;;;;;53.80;24.80;;;;;;;;;;5029772;28;20586;-71
2022/12/19 04:02:15;;;;;;;52.50;24.53;;;;;;;;;;5017697;28;20185;-71
2022/12/19 04:04:45;;;;;;;54.03;25.03;;;;;;;;;;5022399;28;20667;-71
2022/12/19 04:07:13;;;;;;;55.90;25.13;;;;;;;;;;5027133;28;20173;-71
2022/12/19 04:09:41;;;;;;;51.20;23.67;;;;;;;;;;5027332;28;20188;-71
2022/12/19 04:12:17;;;;;;;60.30;25.33;;;;;;;;;;5028024;28;20198;-71
2022/12/19 04:14:43;;;;;;;56.87;24.83;;;;;;;;;;5021452;28;20187;-72
2022/12/19 04:17:49;;;;;;;53.40;24.17;;;;;;;;;;5022111;28;20591;-71
2022/12/19 04:20:21;;;;;;;57.50;25.37;;;;;;;;;;5034029;28;20196;-71
2022/12/19 04:22:53;;;;;;;53.07;24.03;;;;;;;;;;5020844;28;20290;-71
2022/12/19 04:25:26;;;;;;;55.20;24.80;;;;;;;;;;5014308;28;20178;-71
2022/12/19 04:28:02;;;;;;;51.20;24.43;;;;;;;;;;5028019;28;20182;-70
2022/12/19 04:30:28;;;;;;;51.30;24.77;;;;;;;;;;5028354;28;20221;-70
2022/12/19 04:32:54;;;;;;;60.83;25.87;;;;;;;;;;5024697;28;20198;-70
2022/12/19 04:35:20;;;;;;;50.03;24.67;;;;;;;;;;5019272;28;20196;-70
2022/12/19 04:37:45;;;;;;;51.33;24.80;;;;;;;;;;5026406;28;20234;-70
2022/12/19 04:40:11;;;;;;;51.50;25.20;;;;;;;;;;5026617;28;20185;-71
2022/12/19 04:42:37;;;;;;;50.80;25.33;;;;;;;;;;5029494;28;20185;-70
2022/12/19 04:45:04;;;;;;;54.33;26.47;;;;;;;;;;5027231;28;20186;-71
2022/12/19 04:47:29;;;;;;;58.03;26.43;;;;;;;;;;5026784;28;20193;-71
2022/12/19 04:49:54;;;;;;;53.63;25.73;;;;;;;;;;5027810;28;20613;-71
2022/12/19 04:52:20;;;;;;;58.50;26.80;;;;;;;;;;5026206;28;20256;-70
2022/12/19 04:54:45;;;;;;;62.43;26.83;;;;;;;;;;5012889;28;20241;-70
2022/12/19 04:57:10;;;;;;;57.73;27.50;;;;;;;;;;5026513;28;20202;-70
2022/12/19 04:59:36;;;;;;;60.27;27.93;;;;;;;;;;5029653;28;20213;-72
2022/12/19 05:02:01;;;;;;;60.60;27.43;;;;;;;;;;5022348;28;20175;-70
2022/12/19 05:04:26;;;;;;;55.57;27.43;;;;;;;;;;5027507;28;20190;-71
2022/12/19 05:06:52;;;;;;;57.20;27.40;;;;;;;;;;5025864;28;20179;-69
2022/12/19 05:09:17;;;;;;;58.47;27.30;;;;;;;;;;5024267;28;20186;-69
2022/12/19 05:11:43;;;;;;;52.70;26.80;;;;;;;;;;5023696;28;20273;-70
2022/12/19 05:14:09;;;;;;;56.50;26.13;;;;;;;;;;5020703;28;20178;-69
2022/12/19 05:16:34;;;;;;;56.17;26.73;;;;;;;;;;5028719;28;20473;-70
2022/12/19 05:19:00;;;;;;;55.70;27.23;;;;;;;;;;5013871;28;20263;-70
2022/12/19 05:21:26;;;;;;;55.07;26.97;;;;;;;;;;5029080;28;20603;-70
2022/12/19 05:23:52;;;;;;;59.63;27.80;;;;;;;;;;5025181;28;20186;-70
2022/12/19 05:26:18;;;;;;;57.33;27.87;;;;;;;;;;5027668;28;20182;-71
2022/12/19 05:28:43;;;;;;;59.90;27.70;;;;;;;;;;5027470;28;20292;-71
2022/12/19 05:31:11;;;;;;;56.87;27.03;;;;;;;;;;5020389;28;20647;-70
2022/12/19 05:33:38;;;;;;;56.50;28.23;;;;;;;;;;5036041;28;20230;-70
2022/12/19 05:36:04;;;;;;;59.53;28.10;;;;;;;;;;5012574;28;20194;-70
2022/12/19 05:38:29;;;;;;;58.93;28.10;;;;;;;;;;5017984;28;20185;-70
2022/12/19 05:40:55;;;;;;;56.57;27.90;;;;;;;;;;5026579;28;20879;-70
2022/12/19 05:43:20;;;;;;;62.60;28.63;;;;;;;;;;5012836;28;20190;-70
2022/12/19 05:45:46;;;;;;;59.67;27.10;;;;;;;;;;5021321;28;20590;-70
2022/12/19 05:48:13;;;;;;;53.57;26.60;;;;;;;;;;5026647;28;20178;-70
2022/12/19 05:50:38;;;;;;;58.30;27.90;;;;;;;;;;5024640;28;20178;-70
2022/12/19 05:53:04;;;;;;;53.97;27.17;;;;;;;;;;5022824;28;20209;-71
2022/12/19 05:55:29;;;;;;;54.37;26.80;;;;;;;;;;5015207;28;20193;-70
2022/12/19 05:57:54;;;;;;;54.77;26.13;;;;;;;;;;5026138;28;20210;-70
2022/12/19 06:00:20;;;;;;;57.30;27.87;;;;;;;;;;5022493;28;20238;-70
2022/12/19 06:02:46;;;;;;;58.93;27.83;;;;;;;;;;5026145;28;20190;-70
2022/12/19 06:05:12;;;;;;;54.47;27.73;;;;;;;;;;5018023;28;20306;-70
2022/12/19 06:07:37;;;;;;;56.77;26.77;;;;;;;;;;5011624;28;20278;-70
2022/12/19 06:10:03;;;;;;;54.53;27.33;;;;;;;;;;5021516;28;20260;-70
2022/12/19 06:12:29;;;;;;;47.83;26.40;;;;;;;;;;5019930;28;20218;-70
2022/12/19 06:14:54;;;;;;;50.93;25.10;;;;;;;;;;5012900;28;20193;-69
2022/12/19 06:17:19;;;;;;;49.17;25.77;;;;;;;;;;5012220;28;20183;-70
2022/12/19 06:19:45;;;;;;;54.57;26.03;;;;;;;;;;5013493;28;20252;-69
2022/12/19 06:22:10;;;;;;;51.27;25.93;;;;;;;;;;5015742;28;20174;-70
2022/12/19 06:24:35;;;;;;;49.73;26.53;;;;;;;;;;5016570;28;20728;-70
2022/12/19 06:27:01;;;;;;;53.53;26.10;;;;;;;;;;5009348;28;20753;-69
2022/12/19 06:29:26;;;;;;;53.37;26.33;;;;;;;;;;5012172;28;20270;-70
2022/12/19 06:31:51;;;;;;;48.57;25.70;;;;;;;;;;5020773;28;20267;-70
2022/12/19 06:34:17;;;;;;;52.30;26.83;;;;;;;;;;5012802;28;20198;-69
2022/12/19 06:36:42;;;;;;;49.90;26.17;;;;;;;;;;5016470;28;20229;-70
2022/12/19 06:39:12;;;;;;;53.73;28.13;;;;;;;;;;5023283;28;20178;-70
2022/12/19 06:44:22;;;;;;;50.70;26.47;;;;;;;;;;5024201;28;20726;-70
2022/12/19 06:46:47;;;;;;;49.40;27.17;;;;;;;;;;5025825;28;20222;-69
2022/12/19 06:49:12;;;;;;;54.00;26.73;;;;;;;;;;5026571;28;20216;-69
2022/12/19 06:51:38;;;;;;;50.27;24.60;;;;;;;;;;5016465;28;20233;-69
2022/12/19 06:54:04;;;;;;;49.37;25.80;;;;;;;;;;5018530;28;20178;-70
2022/12/19 06:56:36;;;;;;;48.93;24.53;;;;;;;;;;5018376;28;20189;-69
2022/12/19 06:59:02;;;;;;;46.23;24.93;;;;;;;;;;5020529;28;20769;-69
2022/12/19 07:01:49;;;;;;;48.03;25.63;;;;;;;;;;5020956;28;20202;-69
2022/12/19 07:04:20;;;;;;;46.80;25.17;;;;;;;;;;5021847;28;20182;-69
2022/12/19 07:06:45;;;;;;;49.93;25.63;;;;;;;;;;5026432;28;20218;-69
2022/12/19 07:09:11;;;;;;;49.33;24.47;;;;;;;;;;5021944;28;20217;-69
2022/12/19 07:11:36;;;;;;;47.17;25.90;;;;;;;;;;5037052;28;20551;-70
2022/12/19 07:14:01;;;;;;;48.33;25.40;;;;;;;;;;5012799;28;20479;-69
2022/12/19 07:16:27;;;;;;;48.67;25.40;;;;;;;;;;5026185;28;20182;-69
2022/12/19 07:18:53;;;;;;;52.87;25.00;;;;;;;;;;5028050;28;20239;-70
2022/12/19 07:21:18;;;;;;;49.37;24.57;;;;;;;;;;5023314;28;20183;-70
2022/12/19 07:23:44;;;;;;;49.93;25.03;;;;;;;;;;5015244;28;20353;-70
2022/12/19 07:26:09;;;;;;;50.13;25.57;;;;;;;;;;5018834;28;20175;-69
2022/12/19 07:28:35;;;;;;;45.30;24.80;;;;;;;;;;5025441;28;20182;-69
2022/12/19 07:31:00;;;;;;;49.77;24.50;;;;;;;;;;5024321;28;20182;-70
2022/12/19 07:33:26;;;;;;;49.30;25.50;;;;;;;;;;5012339;28;20195;-70
2022/12/19 07:35:51;;;;;;;51.17;24.83;;;;;;;;;;5010286;28;20221;-69
2022/12/19 07:38:17;;;;;;;44.53;25.17;;;;;;;;;;5008715;28;20223;-69
2022/12/19 07:40:42;;;;;;;49.40;24.83;;;;;;;;;;5009318;28;20281;-70
2022/12/19 07:43:08;;;;;;;48.40;25.07;;;;;;;;;;5019931;28;20629;-70
2022/12/19 07:45:36;;;;;;;45.97;24.67;;;;;;;;;;5015197;28;20183;-69
2022/12/19 07:48:03;;;;;;;45.43;23.97;;;;;;;;;;5015130;28;20527;-69
2022/12/19 07:50:29;;;;;;;43.47;23.83;;;;;;;;;;5016468;28;20210;-69
2022/12/19 07:52:55;;;;;;;48.43;24.70;;;;;;;;;;5025465;28;20264;-70
2022/12/19 07:55:21;;;;;;;44.27;23.77;;;;;;;;;;5022431;28;20194;-69
2022/12/19 07:57:46;;;;;;;46.03;23.90;;;;;;;;;;5022665;28;20243;-69
2022/12/19 08:00:12;;;;;;;44.23;23.53;;;;;;;;;;5021317;28;20209;-69
2022/12/19 08:02:37;;;;;;;42.57;23.47;;;;;;;;;;5028202;28;20185;-69
2022/12/19 08:05:03;;;;;;;42.77;23.30;;;;;;;;;;5031204;28;20198;-69
2022/12/19 08:07:28;;;;;;;48.93;26.30;;;;;;;;;;5037713;28;20178;-70
2022/12/19 08:09:54;;;;;;;42.87;23.93;;;;;;;;;;5021185;28;20292;-70
2022/12/19 08:12:20;;;;;;;43.93;24.17;;;;;;;;;;5033675;28;20305;-69
2022/12/19 08:14:45;;;;;;;43.57;24.50;;;;;;;;;;5036299;28;20265;-69
2022/12/19 08:17:11;;;;;;;42.30;24.17;;;;;;;;;;5019595;28;20590;-69
2022/12/19 08:19:36;;;;;;;44.67;25.00;;;;;;;;;;5030723;28;20197;-68
2022/12/19 08:22:01;;;;;;;45.80;24.53;;;;;;;;;;5027476;28;20200;-68
2022/12/19 08:24:27;;;;;;;42.60;24.10;;;;;;;;;;5019215;28;20264;-68
2022/12/19 08:26:52;;;;;;;49.17;25.43;;;;;;;;;;5028514;28;20201;-69
2022/12/19 08:29:17;;;;;;;53.93;26.53;;;;;;;;;;5023251;28;20190;-68
2022/12/19 08:31:43;;;;;;;45.30;24.93;;;;;;;;;;5022669;28;20183;-68
2022/12/19 08:34:08;;;;;;;43.10;23.20;;;;;;;;;;5020771;28;20603;-68
2022/12/19 08:36:33;;;;;;;46.90;24.80;;;;;;;;;;5019581;28;20249;-68
2022/12/19 08:38:59;;;;;;;48.27;23.67;;;;;;;;;;5027062;28;20182;-68
2022/12/19 08:41:24;;;;;;;44.43;24.50;;;;;;;;;;5025932;28;20183;-68
2022/12/19 08:43:53;;;;;;;44.33;24.50;;;;;;;;;;5015505;28;20178;-71
2022/12/19 08:46:19;;;;;;;48.87;25.00;;;;;;;;;;5013120;28;20207;-69
2022/12/19 08:48:45;;;;;;;46.23;24.63;;;;;;;;;;5020183;28;20562;-68
2022/12/19 08:51:12;;;;;;;44.10;25.40;;;;;;;;;;5021627;28;20269;-69
2022/12/19 08:53:39;;;;;;;43.57;23.53;;;;;;;;;;5024734;28;20284;-68
2022/12/19 08:56:09;;;;;;;42.40;23.47;;;;;;;;;;5029072;28;20281;-68
2022/12/19 08:58:35;;;;;;;47.30;23.63;;;;;;;;;;5023704;28;20637;-68
2022/12/19 09:01:07;;;;;;;43.03;22.43;;;;;;;;;;5030235;28;20221;-69
2022/12/19 09:03:33;;;;;;;42.50;23.30;;;;;;;;;;5027529;28;20175;-68
2022/12/19 09:06:01;;;;;;;44.57;22.87;;;;;;;;;;5027289;28;20687;-68
2022/12/19 09:08:27;;;;;;;39.07;22.10;;;;;;;;;;5022697;28;20505;-68
2022/12/19 09:11:00;;;;;;;39.70;22.47;;;;;;;;;;5010333;28;20625;-68
2022/12/19 09:13:26;;;;;;;38.23;21.47;;;;;;;;;;5023528;28;20899;-68
2022/12/19 09:16:06;;;;;;;37.67;21.57;;;;;;;;;;5029226;28;20202;-68
2022/12/19 09:18:32;;;;;;;36.37;20.77;;;;;;;;;;5027959;28;20178;-69
2022/12/19 09:20:58;;;;;;;41.17;20.73;;;;;;;;;;5020957;28;20186;-69
2022/12/19 09:23:27;;;;;;;34.47;19.60;;;;;;;;;;5030164;28;20185;-69
2022/12/19 09:25:54;;;;;;;33.23;19.13;;;;;;;;;;5026993;28;20208;-69
2022/12/19 09:28:19;;;;;;;32.93;19.23;;;;;;;;;;5029400;28;20654;-67
2022/12/19 09:30:45;;;;;;;35.87;20.17;;;;;;;;;;5025677;28;20212;-68
2022/12/19 09:33:11;;;;;;;34.93;18.60;;;;;;;;;;5022809;28;20195;-68
2022/12/19 09:35:37;;;;;;;34.00;19.27;;;;;;;;;;5023894;28;20185;-69
2022/12/19 09:38:02;;;;;;;38.27;19.93;;;;;;;;;;5029271;28;20968;-69
2022/12/19 09:40:34;;;;;;;35.27;19.03;;;;;;;;;;5017282;28;20521;-67
2022/12/19 09:43:18;;;;;;;34.40;17.73;;;;;;;;;;5022862;28;20270;-69
2022/12/19 09:46:03;;;;;;;31.67;17.87;;;;;;;;;;5022029;28;20284;-68
2022/12/19 09:48:28;;;;;;;31.27;17.70;;;;;;;;;;5030291;28;20578;-67
2022/12/19 09:51:02;;;;;;;34.10;18.13;;;;;;;;;;5029817;28;20208;-68
2022/12/19 09:54:01;;;;;;;35.43;18.53;;;;;;;;;;5018105;28;20198;-68
2022/12/19 09:56:30;;;;;;;35.30;18.07;;;;;;;;;;5027711;28;20196;-67
2022/12/19 09:59:03;;;;;;;29.57;16.03;;;;;;;;;;5029395;28;20196;-67
2022/12/19 10:01:36;;;;;;;31.40;17.80;;;;;;;;;;5021134;28;20210;-68
2022/12/19 10:04:09;;;;;;;31.27;16.77;;;;;;;;;;5014719;28;20174;-66
2022/12/19 10:06:34;;;;;;;32.63;17.70;;;;;;;;;;5013609;28;20210;-68
2022/12/19 10:09:00;;;;;;;30.83;16.90;;;;;;;;;;5014937;28;20261;-67
2022/12/19 10:11:39;;;;;;;30.40;17.20;;;;;;;;;;5016633;28;20185;-66
2022/12/19 10:14:19;;;;;;;33.43;17.00;;;;;;;;;;5017928;28;20185;-67
2022/12/19 10:17:19;;;;;;;28.90;17.67;;;;;;;;;;5013626;28;20175;-67
2022/12/19 10:20:14;;;;;;;26.57;15.93;;;;;;;;;;5012506;28;20230;-67
2022/12/19 10:22:46;;;;;;;28.93;16.60;;;;;;;;;;5016382;28;20524;-68
2022/12/19 10:25:30;;;;;;;28.20;16.40;;;;;;;;;;5014082;28;20189;-68
2022/12/19 10:27:55;;;;;;;28.40;15.50;;;;;;;;;;5010983;28;20186;-67
2022/12/19 10:30:21;;;;;;;27.53;16.90;;;;;;;;;;5019198;28;20182;-67
2022/12/19 10:32:55;;;;;;;29.23;17.23;;;;;;;;;;5013305;28;20592;-68
2022/12/19 10:35:22;;;;;;;33.80;17.63;;;;;;;;;;5021986;28;20183;-67
2022/12/19 10:38:06;;;;;;;32.40;17.17;;;;;;;;;;5018129;28;20253;-67
2022/12/19 10:40:36;;;;;;;29.77;16.73;;;;;;;;;;5009901;28;20245;-67
2022/12/19 10:43:30;;;;;;;28.17;16.70;;;;;;;;;;5024915;28;20174;-68
2022/12/19 10:46:01;;;;;;;28.87;16.77;;;;;;;;;;5006198;28;20206;-67
2022/12/19 10:48:27;;;;;;;27.20;15.77;;;;;;;;;;5028629;28;20171;-67
2022/12/19 10:50:52;;;;;;;33.97;18.33;;;;;;;;;;5016862;28;20182;-67
2022/12/19 10:53:27;;;;;;;26.87;15.33;;;;;;;;;;5021172;28;20230;-67
2022/12/19 10:55:53;;;;;;;31.37;16.07;;;;;;;;;;5036343;28;20188;-66
2022/12/19 10:58:19;;;;;;;29.30;16.17;;;;;;;;;;5024495;28;20260;-67
2022/12/19 11:01:13;;;;;;;26.90;14.90;;;;;;;;;;5022240;28;20641;-67
2022/12/19 11:03:45;;;;;;;25.30;15.47;;;;;;;;;;5022914;28;20237;-67
2022/12/19 11:06:32;;;;;;;27.27;16.17;;;;;;;;;;5016859;28;20205;-68
2022/12/19 11:09:28;;;;;;;24.60;15.07;;;;;;;;;;5017837;28;20265;-67
2022/12/19 11:12:06;;;;;;;26.00;15.47;;;;;;;;;;5012137;28;20191;-67
2022/12/19 11:14:34;;;;;;;27.90;15.90;;;;;;;;;;5019223;28;20183;-67
2022/12/19 11:17:00;;;;;;;27.67;15.90;;;;;;;;;;5014816;28;20580;-67
2022/12/19 11:19:37;;;;;;;28.00;15.60;;;;;;;;;;5017996;28;20194;-67
2022/12/19 11:22:06;;;;;;;24.53;15.30;;;;;;;;;;5014683;28;20630;-67
2022/12/19 11:24:38;;;;;;;23.03;15.40;;;;;;;;;;5011567;28;20613;-67
2022/12/19 11:27:38;;;;;;;24.37;15.50;;;;;;;;;;5015199;28;20206;-68
2022/12/19 11:30:25;;;;;;;24.73;15.40;;;;;;;;;;5016508;28;20545;-68
2022/12/19 11:33:11;;;;;;;25.17;14.80;;;;;;;;;;5020726;28;20348;-68
2022/12/19 11:35:47;;;;;;;24.33;14.32;;;;;;;;;;5014823;28;20646;-68
2022/12/19 11:38:15;;;;;;;25.60;15.32;;;;;;;;;;5018670;28;20748;-67
2022/12/19 11:40:48;;;;;;;25.30;15.17;;;;;;;;;;5030607;28;20193;-67
2022/12/19 11:43:24;;;;;;;26.47;14.90;;;;;;;;;;5021013;28;20405;-68
2022/12/19 11:46:19;;;;;;;23.20;13.90;;;;;;;;;;5026259;28;20307;-67
2022/12/19 11:48:49;;;;;;;24.87;13.97;;;;;;;;;;5030554;28;20178;-67
2022/12/19 11:51:20;;;;;;;25.13;13.97;;;;;;;;;;5018114;28;20268;-67
2022/12/19 11:54:06;;;;;;;19.30;13.57;;;;;;;;;;5027372;28;20206;-68
2022/12/19 11:56:31;;;;;;;20.92;11.95;;;;;;;;;;5014304;28;20546;-68
2022/12/19 11:59:01;;;;;;;21.30;13.50;;;;;;;;;;5023126;28;20205;-67
2022/12/19 12:01:45;;;;;;;23.07;12.27;;;;;;;;;;5019322;28;20278;-67
2022/12/19 12:04:50;;;;;;;21.60;12.67;;;;;;;;;;5021985;28;20711;-67
2022/12/19 12:07:16;;;;;;;22.30;12.40;;;;;;;;;;5010907;28;20182;-67
2022/12/19 12:09:59;;;;;;;19.25;12.00;;;;;;;;;;5022214;28;20240;-67
2022/12/19 12:12:28;;;;;;;19.50;11.93;;;;;;;;;;5031197;28;20208;-67
2022/12/19 12:15:29;;;;;;;19.83;11.03;;;;;;;;;;5020343;28;20182;-67
2022/12/19 12:18:19;;;;;;;18.55;10.85;;;;;;;;;;5026242;28;20824;-67
2022/12/19 12:21:00;;;;;;;17.23;10.40;;;;;;;;;;5020689;28;20242;-67
2022/12/19 12:23:41;;;;;;;16.60;10.70;;;;;;;;;;5022758;28;20792;-67
2022/12/19 12:26:29;;;;;;;17.30;11.50;;;;;;;;;;5019212;28;20718;-68
2022/12/19 12:29:01;;;;;;;16.93;10.97;;;;;;;;;;5014291;28;20190;-66
2022/12/19 12:31:53;;;;;;;19.17;11.57;;;;;;;;;;5021100;28;20190;-67
2022/12/19 12:34:30;;;;;;;19.63;11.23;;;;;;;;;;5016762;28;20696;-67
2022/12/19 12:37:05;;;;;;;18.33;10.83;;;;;;;;;;5015206;28;20333;-66
2022/12/19 12:39:42;;;;;;;17.43;11.03;;;;;;;;;;5013978;28;20174;-66
2022/12/19 12:42:18;;;;;;;17.90;10.73;;;;;;;;;;5012459;28;20171;-67
2022/12/19 12:44:47;;;;;;;16.53;10.77;;;;;;;;;;5019893;28;20210;-67
2022/12/19 12:47:24;;;;;;;17.43;10.67;;;;;;;;;;5010937;28;20265;-67
2022/12/19 12:49:56;;;;;;;17.80;10.50;;;;;;;;;;5014073;28;20213;-67
2022/12/19 12:52:37;;;;;;;15.93;10.50;;;;;;;;;;5013071;28;20645;-67
2022/12/19 12:55:13;;;;;;;16.53;10.80;;;;;;;;;;5015797;28;20647;-67
2022/12/19 12:57:38;;;;;;;18.67;10.60;;;;;;;;;;5013855;28;20600;-66
2022/12/19 13:00:23;;;;;;;17.93;11.30;;;;;;;;;;5020849;28;20210;-67
2022/12/19 13:02:56;;;;;;;15.93;10.07;;;;;;;;;;5016578;28;20206;-66
2022/12/19 13:05:52;;;;;;;17.05;10.10;;;;;;;;;;5016991;28;20272;-67
2022/12/19 13:08:43;;;;;;;15.70;9.70;;;;;;;;;;5025236;28;20289;-67
2022/12/19 13:14:03;;;;;;;16.45;10.00;;;;;;;;;;5017393;28;20229;-66
2022/12/19 13:16:44;;;;;;;16.50;10.33;;;;;;;;;;5014267;28;20710;-66
2022/12/19 13:19:15;;;;;;;17.05;9.90;;;;;;;;;;5013712;28;20221;-66
2022/12/19 13:22:02;;;;;;;14.05;9.85;;;;;;;;;;5021425;28;20186;-67
2022/12/19 13:24:37;;;;;;;15.27;10.00;;;;;;;;;;5018528;28;20186;-67
2022/12/19 13:27:03;;;;;;;16.90;10.27;;;;;;;;;;5015817;28;20518;-67
2022/12/19 13:29:52;;;;;;;15.83;9.93;;;;;;;;;;5019930;28;20179;-67
2022/12/19 13:32:20;;;;;;;16.10;9.80;;;;;;;;;;5020912;28;20256;-67
2022/12/19 13:34:51;;;;;;;16.02;10.80;;;;;;;;;;5024628;28;20182;-66
2022/12/19 13:37:30;;;;;;;13.70;9.57;;;;;;;;;;5015608;28;20227;-66
2022/12/19 13:39:56;;;;;;;13.10;9.80;;;;;;;;;;5013845;28;20183;-66
2022/12/19 13:45:19;;;;;;;14.48;8.95;;;;;;;;;;5012951;28;20317;-66
2022/12/19 13:47:46;;;;;;;13.75;9.00;;;;;;;;;;5012002;28;20606;-67
2022/12/19 13:50:37;;;;;;;13.70;9.32;;;;;;;;;;5014851;28;20229;-66
2022/12/19 13:53:18;;;;;;;15.77;9.65;;;;;;;;;;5012580;28;20299;-66
2022/12/19 13:55:43;;;;;;;13.95;9.57;;;;;;;;;;5009695;28;20194;-67
2022/12/19 13:58:35;;;;;;;18.17;11.05;;;;;;;;;;5016773;28;20585;-66
2022/12/19 14:01:07;;;;;;;14.70;9.43;;;;;;;;;;5010663;28;20217;-67
2022/12/19 14:03:37;;;;;;;16.70;10.30;;;;;;;;;;5020263;28;20177;-67
2022/12/19 14:06:10;;;;;;;17.58;10.00;;;;;;;;;;5016203;28;20203;-67
2022/12/19 14:08:36;;;;;;;15.93;11.05;;;;;;;;;;5021848;28;20233;-67
2022/12/19 14:11:06;;;;;;;17.60;10.70;;;;;;;;;;5014940;28;20514;-67
2022/12/19 14:16:22;;;;;;;20.65;10.70;;;;;;;;;;5012717;28;20201;-67
2022/12/19 14:18:49;;;;;;;14.25;9.90;;;;;;;;;;5009735;28;20174;-67
2022/12/19 14:21:20;;;;;;;18.08;11.35;;;;;;;;;;5021063;28;20185;-67
2022/12/19 14:23:46;;;;;;;17.10;10.97;;;;;;;;;;5023142;28;20250;-67
2022/12/19 14:26:20;;;;;;;18.00;12.60;;;;;;;;;;5020301;28;20269;-69
2022/12/19 14:28:55;;;;;;;18.93;10.53;;;;;;;;;;5019651;28;20281;-68
2022/12/19 14:31:23;;;;;;;18.43;11.07;;;;;;;;;;5020571;28;20477;-67
2022/12/19 14:33:51;;;;;;;17.50;10.77;;;;;;;;;;5014115;28;20755;-67
2022/12/19 14:36:23;;;;;;;16.88;11.30;;;;;;;;;;5024830;28;20189;-68
2022/12/19 14:38:49;;;;;;;18.23;9.95;;;;;;;;;;5017894;28;20201;-67
2022/12/19 14:44:16;;;;;;;19.17;10.77;;;;;;;;;;5016140;28;20284;-66
2022/12/19 14:46:42;;;;;;;18.47;10.67;;;;;;;;;;5013080;28;20759;-67
2022/12/19 14:49:31;;;;;;;16.40;10.15;;;;;;;;;;5014923;28;20189;-67
2022/12/19 14:51:57;;;;;;;15.55;10.40;;;;;;;;;;5022043;28;20207;-67
2022/12/19 14:54:23;;;;;;;16.77;10.27;;;;;;;;;;4321027;28;10000805;-67
2022/12/19 14:56:52;;;;;;;20.13;11.33;;;;;;;;;;5020481;28;20194;-68
2022/12/19 14:59:25;;;;;;;21.17;11.93;;;;;;;;;;5023886;28;20190;-67